createdAt,value
2022-08-29T00:01:33.596Z,16.40
2022-08-29T00:04:03.226Z,16.35
2022-08-29T00:06:31.370Z,16.24
2022-08-29T00:08:59.261Z,16.24
2022-08-29T00:11:27.230Z,16.17
2022-08-29T00:13:55.124Z,16.33
2022-08-29T00:16:23.032Z,16.20
2022-08-29T00:18:50.924Z,16.14
2022-08-29T00:21:20.175Z,16.12
2022-08-29T00:23:48.028Z,16.05
2022-08-29T00:26:15.947Z,16.14
2022-08-29T00:28:43.942Z,16.10
2022-08-29T00:31:11.830Z,16.18
2022-08-29T00:33:39.997Z,16.25
2022-08-29T00:36:09.319Z,16.18
2022-08-29T00:38:38.872Z,16.08
2022-08-29T00:41:09.711Z,16.11
2022-08-29T00:43:38.828Z,16.29
2022-08-29T00:46:25.410Z,16.20
2022-08-29T00:48:57.788Z,16.14
2022-08-29T00:51:26.460Z,16.20
2022-08-29T00:54:01.410Z,16.17
2022-08-29T00:56:30.446Z,16.26
2022-08-29T00:59:01.753Z,16.26
2022-08-29T01:01:29.631Z,16.14
2022-08-29T01:03:57.621Z,16.18
2022-08-29T01:06:27.510Z,16.12
2022-08-29T01:08:58.196Z,16.03
2022-08-29T01:11:46.664Z,15.92
2022-08-29T01:14:15.737Z,16.07
2022-08-29T01:16:44.179Z,16.06
2022-08-29T01:19:20.608Z,16.05
2022-08-29T01:21:57.821Z,16.12
2022-08-29T01:24:38.644Z,15.96
2022-08-29T01:27:06.861Z,15.88
2022-08-29T01:29:36.129Z,15.88
2022-08-29T01:32:05.381Z,15.91
2022-08-29T01:34:33.973Z,15.98
2022-08-29T01:37:04.372Z,15.96
2022-08-29T01:39:35.632Z,15.98
2022-08-29T01:42:06.861Z,15.81
2022-08-29T01:44:34.856Z,15.85
2022-08-29T01:47:03.580Z,15.75
2022-08-29T01:49:33.076Z,15.91
2022-08-29T01:52:02.039Z,15.90
2022-08-29T01:54:30.732Z,15.82
2022-08-29T01:57:00.701Z,15.64
2022-08-29T01:59:30.472Z,15.68
2022-08-29T02:02:02.705Z,15.84
2022-08-29T02:04:31.021Z,15.78
2022-08-29T02:06:59.521Z,15.70
2022-08-29T02:09:28.969Z,15.72
2022-08-29T02:11:58.182Z,15.68
2022-08-29T02:14:27.452Z,15.75
2022-08-29T02:16:55.288Z,15.65
2022-08-29T02:19:23.493Z,15.65
2022-08-29T02:21:52.438Z,15.57
2022-08-29T02:24:27.611Z,15.58
2022-08-29T02:26:56.572Z,15.51
2022-08-29T02:29:25.789Z,15.52
2022-08-29T02:31:59.998Z,15.65
2022-08-29T02:34:30.901Z,15.60
2022-08-29T02:37:00.247Z,15.53
2022-08-29T02:39:28.405Z,15.45
2022-08-29T02:41:56.472Z,15.47
2022-08-29T02:44:24.437Z,15.45
2022-08-29T02:46:52.389Z,15.38
2022-08-29T02:49:21.831Z,15.30
2022-08-29T02:51:49.809Z,15.30
2022-08-29T02:54:18.033Z,15.27
2022-08-29T02:56:45.861Z,15.27
2022-08-29T02:59:14.165Z,15.26
2022-08-29T03:01:42.076Z,15.44
2022-08-29T03:04:10.090Z,15.48
2022-08-29T03:06:39.336Z,15.42
2022-08-29T03:09:07.229Z,15.35
2022-08-29T03:11:35.114Z,15.42
2022-08-29T03:14:02.947Z,15.33
2022-08-29T03:16:31.103Z,15.34
2022-08-29T03:18:59.393Z,15.33
2022-08-29T03:21:28.306Z,15.30
2022-08-29T03:23:57.993Z,15.25
2022-08-29T03:26:26.620Z,15.27
2022-08-29T03:28:54.542Z,15.26
2022-08-29T03:31:23.119Z,15.23
2022-08-29T03:33:51.088Z,15.19
2022-08-29T03:36:19.201Z,15.26
2022-08-29T03:38:48.738Z,15.28
2022-08-29T03:41:23.711Z,15.30
2022-08-29T03:43:52.424Z,15.18
2022-08-29T03:46:20.347Z,15.23
2022-08-29T03:48:48.303Z,15.22
2022-08-29T03:51:16.731Z,15.24
2022-08-29T03:53:45.209Z,15.25
2022-08-29T03:56:18.819Z,15.28
2022-08-29T03:58:53.093Z,15.15
2022-08-29T04:01:24.322Z,15.10
2022-08-29T04:03:52.755Z,15.19
2022-08-29T04:06:20.717Z,15.15
2022-08-29T04:08:48.942Z,15.21
2022-08-29T04:11:18.087Z,15.21
2022-08-29T04:13:46.070Z,15.05
2022-08-29T04:16:17.728Z,14.80
2022-08-29T04:18:45.632Z,14.79
2022-08-29T04:21:15.427Z,14.82
2022-08-29T04:23:43.391Z,14.83
2022-08-29T04:26:35.579Z,14.82
2022-08-29T04:29:03.373Z,14.86
2022-08-29T04:31:32.689Z,14.76
2022-08-29T04:34:00.673Z,14.73
2022-08-29T04:36:29.183Z,14.82
2022-08-29T04:38:57.868Z,14.83
2022-08-29T04:41:25.966Z,14.88
2022-08-29T04:43:54.137Z,14.87
2022-08-29T04:46:24.011Z,14.98
2022-08-29T04:48:54.952Z,15.14
2022-08-29T04:51:23.313Z,15.13
2022-08-29T04:53:51.664Z,15.08
2022-08-29T04:56:20.755Z,15.02
2022-08-29T04:58:50.516Z,14.96
2022-08-29T05:01:22.652Z,14.92
2022-08-29T05:03:52.078Z,15.07
2022-08-29T05:06:23.227Z,15.10
2022-08-29T05:08:59.313Z,15.23
2022-08-29T05:11:29.680Z,15.26
2022-08-29T05:13:58.477Z,15.24
2022-08-29T05:16:26.420Z,15.32
2022-08-29T05:18:54.396Z,15.23
2022-08-29T05:21:28.921Z,15.27
2022-08-29T05:23:57.420Z,15.31
2022-08-29T05:26:25.951Z,15.42
2022-08-29T05:28:53.927Z,15.43
2022-08-29T05:31:22.309Z,15.44
2022-08-29T05:33:50.482Z,15.48
2022-08-29T05:36:19.042Z,15.53
2022-08-29T05:38:48.426Z,15.57
2022-08-29T05:41:16.668Z,15.66
2022-08-29T05:43:44.755Z,15.69
2022-08-29T05:46:12.916Z,15.75
2022-08-29T05:48:42.823Z,15.75
2022-08-29T05:51:16.707Z,15.88
2022-08-29T05:53:44.678Z,16.07
2022-08-29T05:56:14.033Z,16.05
2022-08-29T05:58:41.886Z,16.14
2022-08-29T06:01:09.781Z,16.27
2022-08-29T06:03:37.759Z,16.32
2022-08-29T06:06:05.859Z,16.43
2022-08-29T06:08:33.785Z,16.44
2022-08-29T06:11:01.966Z,16.52
2022-08-29T06:13:31.368Z,16.58
2022-08-29T06:15:59.262Z,16.63
2022-08-29T06:18:33.629Z,16.68
2022-08-29T06:21:05.580Z,16.78
2022-08-29T06:23:33.513Z,16.99
2022-08-29T06:26:01.732Z,17.00
2022-08-29T06:28:32.094Z,17.18
2022-08-29T06:31:07.446Z,17.26
2022-08-29T06:33:36.392Z,17.41
2022-08-29T06:36:05.471Z,17.50
2022-08-29T06:38:33.594Z,17.55
2022-08-29T06:41:03.983Z,17.63
2022-08-29T06:43:33.537Z,17.69
2022-08-29T06:46:01.691Z,17.79
2022-08-29T06:48:29.855Z,17.75
2022-08-29T06:50:58.379Z,17.76
2022-08-29T06:53:32.526Z,17.81
2022-08-29T06:56:06.543Z,17.97
2022-08-29T06:58:40.967Z,18.07
2022-08-29T07:01:10.423Z,18.10
2022-08-29T07:03:38.765Z,17.94
2022-08-29T07:06:07.092Z,18.10
2022-08-29T07:08:35.606Z,18.15
2022-08-29T07:11:04.027Z,18.31
2022-08-29T07:13:32.176Z,18.41
2022-08-29T07:16:01.592Z,18.48
2022-08-29T07:18:29.940Z,18.38
2022-08-29T07:20:57.852Z,18.54
2022-08-29T07:23:25.825Z,18.65
2022-08-29T07:25:53.910Z,18.77
2022-08-29T07:28:21.811Z,18.91
2022-08-29T07:30:50.855Z,18.93
2022-08-29T07:33:20.185Z,18.98
2022-08-29T07:35:48.240Z,19.01
2022-08-29T07:38:16.315Z,18.95
2022-08-29T07:40:44.373Z,19.07
2022-08-29T07:43:16.546Z,19.22
2022-08-29T07:45:47.223Z,19.32
2022-08-29T07:48:17.194Z,19.31
2022-08-29T07:50:48.441Z,19.37
2022-08-29T07:53:16.623Z,19.17
2022-08-29T07:55:45.459Z,19.29
2022-08-29T07:58:13.568Z,19.54
2022-08-29T08:00:41.573Z,19.66
2022-08-29T08:03:11.025Z,19.70
2022-08-29T08:05:39.227Z,19.83
2022-08-29T08:08:14.995Z,19.92
2022-08-29T08:10:43.352Z,20.07
2022-08-29T08:13:11.455Z,20.08
2022-08-29T08:15:39.695Z,20.12
2022-08-29T08:18:07.759Z,20.16
2022-08-29T08:20:35.727Z,19.97
2022-08-29T08:23:03.846Z,20.23
2022-08-29T08:25:33.123Z,20.38
2022-08-29T08:28:01.060Z,20.46
2022-08-29T08:30:30.849Z,20.57
2022-08-29T08:33:03.634Z,20.68
2022-08-29T08:35:34.892Z,20.85
2022-08-29T08:38:03.084Z,20.67
2022-08-29T08:40:34.081Z,20.64
2022-08-29T08:43:03.700Z,20.80
2022-08-29T08:45:37.524Z,20.95
2022-08-29T08:48:10.160Z,20.76
2022-08-29T08:50:54.274Z,21.00
2022-08-29T08:53:29.372Z,21.09
2022-08-29T08:55:59.969Z,21.10
2022-08-29T08:58:33.727Z,21.40
2022-08-29T09:01:05.468Z,21.58
2022-08-29T09:04:16.106Z,21.55
2022-08-29T09:06:58.699Z,21.78
2022-08-29T09:09:38.456Z,21.99
2022-08-29T09:12:19.386Z,22.06
2022-08-29T09:14:58.722Z,22.26
2022-08-29T09:17:36.476Z,22.15
2022-08-29T09:20:09.374Z,22.34
2022-08-29T09:22:40.639Z,22.31
2022-08-29T09:25:11.116Z,22.40
2022-08-29T09:27:40.692Z,22.60
2022-08-29T09:30:12.022Z,22.36
2022-08-29T09:33:09.080Z,22.61
2022-08-29T09:35:40.855Z,22.86
2022-08-29T09:38:19.332Z,22.77
2022-08-29T09:40:54.467Z,22.65
2022-08-29T09:43:27.432Z,22.97
2022-08-29T09:46:08.118Z,23.31
2022-08-29T09:48:37.853Z,23.47
2022-08-29T09:51:15.979Z,23.55
2022-08-29T09:53:44.764Z,23.86
2022-08-29T09:56:19.013Z,24.09
2022-08-29T09:59:00.574Z,24.26
2022-08-29T10:01:29.288Z,24.07
2022-08-29T10:04:00.163Z,24.34
2022-08-29T10:06:32.130Z,23.54
2022-08-29T10:09:03.911Z,23.03
2022-08-29T10:11:38.392Z,22.82
2022-08-29T10:14:12.703Z,23.54
2022-08-29T10:16:49.626Z,24.28
2022-08-29T10:19:21.919Z,24.60
2022-08-29T10:21:59.818Z,25.18
2022-08-29T10:24:53.357Z,25.26
2022-08-29T10:27:30.591Z,25.47
2022-08-29T10:30:09.104Z,25.78
2022-08-29T10:32:51.986Z,25.72
2022-08-29T10:35:27.553Z,26.29
2022-08-29T10:37:59.283Z,25.97
2022-08-29T10:40:43.505Z,25.88
2022-08-29T10:43:38.210Z,24.82
2022-08-29T10:46:20.679Z,24.89
2022-08-29T10:49:00.446Z,24.51
2022-08-29T10:51:37.195Z,24.36
2022-08-29T10:54:14.344Z,24.42
2022-08-29T10:56:45.816Z,24.24
2022-08-29T10:59:20.460Z,23.90
2022-08-29T11:01:56.761Z,23.92
2022-08-29T11:04:31.505Z,24.38
2022-08-29T11:07:03.510Z,24.48
2022-08-29T11:09:37.488Z,24.75
2022-08-29T11:12:09.075Z,25.50
2022-08-29T11:14:41.735Z,24.83
2022-08-29T11:17:17.815Z,24.37
2022-08-29T11:19:59.458Z,24.51
2022-08-29T11:22:38.814Z,24.49
2022-08-29T11:25:11.024Z,24.81
2022-08-29T11:27:54.638Z,24.99
2022-08-29T11:30:29.007Z,25.16
2022-08-29T11:33:07.743Z,25.78
2022-08-29T11:35:45.864Z,26.05
2022-08-29T11:38:43.771Z,26.98
2022-08-29T11:41:28.225Z,27.11
2022-08-29T11:44:03.319Z,27.24
2022-08-29T11:46:38.702Z,26.58
2022-08-29T11:49:42.577Z,27.01
2022-08-29T11:52:22.519Z,26.78
2022-08-29T11:55:09.856Z,27.08
2022-08-29T11:57:51.102Z,27.08
2022-08-29T12:00:51.126Z,27.65
2022-08-29T12:03:52.749Z,27.17
2022-08-29T12:06:30.541Z,27.13
2022-08-29T12:09:08.118Z,26.65
2022-08-29T12:12:12.733Z,25.46
2022-08-29T12:14:43.452Z,24.96
2022-08-29T12:17:58.198Z,25.00
2022-08-29T12:23:04.648Z,24.38
2022-08-29T12:25:59.321Z,24.31
2022-08-29T12:28:58.780Z,24.78
2022-08-29T12:31:56.396Z,25.43
2022-08-29T12:34:42.678Z,26.10
2022-08-29T12:37:35.694Z,26.58
2022-08-29T12:40:29.288Z,27.10
2022-08-29T12:43:27.678Z,26.24
2022-08-29T12:45:57.399Z,26.95
2022-08-29T12:48:28.653Z,27.08
2022-08-29T12:50:56.947Z,27.40
2022-08-29T12:53:26.584Z,27.22
2022-08-29T12:55:58.220Z,26.49
2022-08-29T12:58:38.440Z,26.61
2022-08-29T13:01:10.536Z,26.35
2022-08-29T13:03:38.515Z,26.25
2022-08-29T13:06:11.379Z,26.17
2022-08-29T13:08:39.530Z,25.57
2022-08-29T13:11:12.643Z,25.04
2022-08-29T13:13:41.080Z,24.85
2022-08-29T13:16:22.747Z,24.61
2022-08-29T13:19:09.712Z,24.99
2022-08-29T13:21:38.649Z,25.72
2022-08-29T13:24:15.727Z,26.38
2022-08-29T13:27:06.008Z,26.73
2022-08-29T13:29:38.139Z,26.82
2022-08-29T13:32:27.241Z,26.56
2022-08-29T13:35:03.859Z,26.78
2022-08-29T13:37:35.242Z,27.21
2022-08-29T13:40:33.665Z,27.26
2022-08-29T13:43:03.129Z,27.58
2022-08-29T13:45:31.180Z,27.57
2022-08-29T13:48:12.862Z,27.29
2022-08-29T13:50:41.406Z,27.67
2022-08-29T13:53:09.422Z,27.99
2022-08-29T13:55:37.561Z,28.35
2022-08-29T13:58:06.844Z,27.85
2022-08-29T14:00:35.810Z,26.71
2022-08-29T14:03:09.152Z,26.28
2022-08-29T14:08:24.884Z,26.27
2022-08-29T14:10:53.242Z,26.56
2022-08-29T14:13:22.803Z,26.95
2022-08-29T14:15:50.717Z,27.14
2022-08-29T14:18:18.708Z,27.57
2022-08-29T14:20:46.701Z,27.82
2022-08-29T14:23:14.656Z,27.51
2022-08-29T14:25:42.657Z,26.75
2022-08-29T14:28:10.581Z,26.69
2022-08-29T14:30:51.958Z,26.20
2022-08-29T14:33:20.478Z,25.95
2022-08-29T14:35:48.340Z,26.19
2022-08-29T14:38:17.310Z,26.77
2022-08-29T14:40:45.560Z,26.47
2022-08-29T14:43:13.514Z,26.28
2022-08-29T14:45:41.307Z,26.54
2022-08-29T14:48:10.853Z,26.56
2022-08-29T14:50:38.883Z,26.86
2022-08-29T14:53:07.279Z,27.05
2022-08-29T14:55:36.320Z,26.94
2022-08-29T14:58:04.719Z,26.52
2022-08-29T15:00:34.957Z,26.67
2022-08-29T15:03:02.848Z,26.50
2022-08-29T15:05:32.115Z,25.92
2022-08-29T15:08:05.882Z,25.60
2022-08-29T15:10:34.396Z,26.02
2022-08-29T15:13:02.424Z,26.73
2022-08-29T15:15:30.382Z,27.03
2022-08-29T15:17:59.844Z,27.14
2022-08-29T15:20:36.041Z,26.72
2022-08-29T15:23:06.108Z,26.82
2022-08-29T15:25:33.961Z,27.08
2022-08-29T15:28:01.951Z,26.88
2022-08-29T15:30:29.953Z,26.77
2022-08-29T15:32:57.778Z,26.42
2022-08-29T15:35:25.910Z,26.53
2022-08-29T15:37:56.086Z,26.69
2022-08-29T15:40:26.051Z,26.72
2022-08-29T15:42:54.080Z,26.94
2022-08-29T15:45:22.634Z,26.94
2022-08-29T15:47:54.148Z,26.98
2022-08-29T15:50:23.647Z,27.07
2022-08-29T15:52:52.076Z,27.12
2022-08-29T15:55:20.490Z,26.98
2022-08-29T15:57:51.516Z,26.99
2022-08-29T16:00:30.715Z,27.14
2022-08-29T16:03:03.796Z,26.97
2022-08-29T16:05:32.696Z,26.88
2022-08-29T16:08:01.201Z,26.88
2022-08-29T16:10:29.331Z,26.45
2022-08-29T16:12:58.764Z,26.32
2022-08-29T16:15:27.784Z,26.45
2022-08-29T16:17:55.788Z,26.50
2022-08-29T16:20:24.353Z,26.66
2022-08-29T16:22:52.668Z,26.72
2022-08-29T16:25:21.800Z,26.77
2022-08-29T16:27:50.534Z,26.58
2022-08-29T16:30:20.646Z,26.64
2022-08-29T16:32:52.177Z,26.58
2022-08-29T16:35:20.770Z,26.43
2022-08-29T16:38:00.398Z,26.50
2022-08-29T16:40:32.166Z,26.42
2022-08-29T16:43:00.213Z,26.29
2022-08-29T16:45:29.600Z,26.40
2022-08-29T16:47:57.883Z,26.21
2022-08-29T16:50:27.396Z,25.99
2022-08-29T16:53:14.048Z,26.00
2022-08-29T16:55:42.308Z,25.85
2022-08-29T16:58:26.891Z,25.52
2022-08-29T17:00:56.349Z,25.39
2022-08-29T17:03:27.253Z,25.23
2022-08-29T17:05:55.189Z,25.04
2022-08-29T17:08:21.993Z,24.95
2022-08-29T17:10:48.802Z,24.79
2022-08-29T17:13:15.618Z,24.72
2022-08-29T17:15:42.536Z,24.62
2022-08-29T17:18:12.334Z,24.53
2022-08-29T17:20:41.815Z,24.27
2022-08-29T17:23:17.349Z,23.93
2022-08-29T17:25:45.251Z,23.70
2022-08-29T17:28:18.251Z,23.51
2022-08-29T17:30:50.630Z,23.28
2022-08-29T17:33:20.679Z,23.09
2022-08-29T17:35:49.138Z,23.01
2022-08-29T17:38:17.910Z,22.92
2022-08-29T17:40:46.789Z,22.78
2022-08-29T17:43:18.316Z,22.63
2022-08-29T17:45:46.990Z,22.45
2022-08-29T17:48:15.297Z,22.35
2022-08-29T17:50:44.734Z,22.15
2022-08-29T17:53:12.911Z,21.96
2022-08-29T17:55:41.390Z,21.80
2022-08-29T17:58:09.443Z,21.64
2022-08-29T18:00:37.385Z,21.44
2022-08-29T18:03:05.636Z,21.25
2022-08-29T18:05:33.544Z,21.06
2022-08-29T18:08:02.907Z,20.88
2022-08-29T18:10:30.800Z,20.72
2022-08-29T18:12:58.897Z,20.66
2022-08-29T18:15:26.908Z,20.50
2022-08-29T18:17:55.661Z,20.49
2022-08-29T18:20:23.801Z,20.35
2022-08-29T18:22:51.811Z,20.13
2022-08-29T18:25:22.761Z,20.02
2022-08-29T18:27:51.304Z,20.01
2022-08-29T18:30:26.035Z,19.89
2022-08-29T18:32:54.785Z,19.86
2022-08-29T18:35:22.955Z,19.81
2022-08-29T18:37:50.800Z,19.77
2022-08-29T18:40:19.066Z,19.73
2022-08-29T18:42:48.411Z,19.69
2022-08-29T18:45:16.326Z,19.68
2022-08-29T18:47:44.250Z,19.69
2022-08-29T18:50:30.042Z,19.66
2022-08-29T18:52:57.965Z,19.59
2022-08-29T18:55:26.191Z,19.55
2022-08-29T18:57:56.275Z,19.57
2022-08-29T19:00:25.076Z,19.59
2022-08-29T19:02:53.819Z,19.54
2022-08-29T19:05:22.846Z,19.43
2022-08-29T19:07:50.821Z,19.36
2022-08-29T19:10:19.688Z,19.32
2022-08-29T19:12:48.934Z,19.28
2022-08-29T19:15:19.719Z,19.24
2022-08-29T19:17:48.143Z,19.22
2022-08-29T19:20:35.978Z,19.14
2022-08-29T19:23:04.709Z,19.04
2022-08-29T19:25:32.569Z,18.98
2022-08-29T19:28:00.693Z,18.92
2022-08-29T19:30:30.200Z,18.99
2022-08-29T19:32:58.078Z,19.02
2022-08-29T19:35:28.542Z,18.99
2022-08-29T19:37:57.148Z,18.99
2022-08-29T19:40:25.678Z,18.90
2022-08-29T19:42:55.776Z,18.79
2022-08-29T19:45:25.137Z,18.74
2022-08-29T19:47:54.408Z,18.63
2022-08-29T19:50:24.773Z,18.48
2022-08-29T19:52:54.501Z,18.34
2022-08-29T19:55:23.563Z,18.24
2022-08-29T19:57:52.310Z,18.16
2022-08-29T20:00:23.931Z,18.08
2022-08-29T20:02:53.946Z,18.03
2022-08-29T20:05:22.207Z,17.99
2022-08-29T20:07:50.693Z,17.99
2022-08-29T20:10:22.865Z,17.96
2022-08-29T20:12:51.776Z,17.92
2022-08-29T20:15:20.901Z,17.89
2022-08-29T20:17:49.829Z,17.80
2022-08-29T20:20:22.375Z,17.80
2022-08-29T20:22:51.068Z,17.78
2022-08-29T20:25:20.507Z,17.68
2022-08-29T20:27:48.772Z,17.60
2022-08-29T20:30:20.902Z,17.52
2022-08-29T20:32:50.294Z,17.47
2022-08-29T20:35:40.356Z,17.48
2022-08-29T20:38:08.064Z,17.49
2022-08-29T20:40:39.135Z,17.51
2022-08-29T20:43:07.445Z,17.45
2022-08-29T20:45:35.488Z,17.45
2022-08-29T20:48:03.667Z,17.35
2022-08-29T20:50:33.225Z,17.29
2022-08-29T20:53:01.185Z,17.36
2022-08-29T20:55:29.210Z,17.39
2022-08-29T20:57:57.213Z,17.36
2022-08-29T21:00:25.521Z,17.54
2022-08-29T21:03:10.729Z,17.64
2022-08-29T21:05:41.529Z,17.64
2022-08-29T21:08:10.611Z,17.62
2022-08-29T21:10:38.653Z,17.63
2022-08-29T21:13:06.956Z,17.67
2022-08-29T21:15:34.860Z,17.64
2022-08-29T21:18:03.251Z,17.56
2022-08-29T21:20:31.941Z,17.46
2022-08-29T21:23:03.976Z,17.38
2022-08-29T21:25:32.260Z,17.23
2022-08-29T21:28:00.135Z,17.07
2022-08-29T21:30:28.515Z,16.97
2022-08-29T21:32:56.960Z,16.86
2022-08-29T21:35:25.060Z,16.82
2022-08-29T21:37:54.223Z,16.85
2022-08-29T21:40:25.847Z,16.94
2022-08-29T21:42:55.812Z,16.99
2022-08-29T21:45:24.417Z,17.06
2022-08-29T21:47:52.767Z,17.08
2022-08-29T21:50:21.250Z,16.98
2022-08-29T21:52:49.786Z,17.22
2022-08-29T21:55:19.113Z,17.80
2022-08-29T21:57:56.379Z,18.01
2022-08-29T22:00:28.362Z,17.97
2022-08-29T22:02:56.320Z,17.97
2022-08-29T22:05:24.656Z,17.88
2022-08-29T22:07:52.748Z,17.85
2022-08-29T22:10:23.253Z,17.66
2022-08-29T22:12:52.987Z,17.70
2022-08-29T22:15:39.169Z,17.63
2022-08-29T22:18:08.660Z,17.69
2022-08-29T22:20:37.649Z,17.73
2022-08-29T22:23:05.741Z,17.85
2022-08-29T22:25:33.827Z,17.80
2022-08-29T22:28:03.528Z,17.70
2022-08-29T22:30:32.622Z,17.57
2022-08-29T22:33:01.254Z,17.39
2022-08-29T22:35:29.832Z,17.40
2022-08-29T22:37:57.731Z,17.34
2022-08-29T22:40:27.375Z,17.20
2022-08-29T22:42:55.297Z,17.20
2022-08-29T22:45:25.557Z,17.11
2022-08-29T22:47:53.716Z,17.03
2022-08-29T22:50:23.731Z,17.31
2022-08-29T22:52:54.285Z,17.35
2022-08-29T22:57:52.147Z,17.18
2022-08-29T23:00:23.548Z,17.25
2022-08-29T23:02:53.859Z,17.23
2022-08-29T23:05:24.097Z,17.21
2022-08-29T23:07:52.807Z,17.30
2022-08-29T23:10:22.137Z,17.26
2022-08-29T23:12:50.731Z,17.27
2022-08-29T23:15:19.370Z,17.18
2022-08-29T23:17:47.643Z,17.16
2022-08-29T23:20:17.357Z,16.95
2022-08-29T23:22:47.270Z,16.84
2022-08-29T23:25:16.912Z,16.77
2022-08-29T23:27:44.825Z,16.64
2022-08-29T23:30:15.319Z,16.66
2022-08-29T23:32:43.474Z,16.62
2022-08-29T23:35:11.594Z,16.67
2022-08-29T23:37:40.923Z,16.64
2022-08-29T23:40:09.766Z,16.74
2022-08-29T23:42:37.942Z,16.63
2022-08-29T23:45:06.795Z,16.57
2022-08-29T23:47:36.115Z,16.59
2022-08-29T23:50:04.868Z,16.66
2022-08-29T23:52:32.829Z,16.69
2022-08-29T23:55:06.483Z,16.72
2022-08-29T23:57:37.260Z,16.67
